Terminal Aerodrome Forecast
Issued by NWS Tampa Bay Area, FL

Current Version | Previous Version | Text Only | Print | Product List | Glossary On
Versions: 1 2 3 4 5 6 7 8 9 10 11 12 13 14 15 16 17 18 19 20 21 22 23 24 25 26
000
FTUS42 KTBW 270500
TAFSRQ
TAF
KSRQ 270532Z 2706/2806 36007KT P6SM SCT015 OVC040
      TEMPO 2706/2710 BKN015
     FM271000 04009KT P6SM SCT005 OVC015
     FM271800 04011KT P6SM SCT015 BKN050
     FM280200 06011KT P6SM BKN015=

USA.gov is the U.S. government's official web portal to all federal, state and local government web resources and services.